Impacts METAR Board
IDs:

KLAL - Lakeland Rgnl, FL, US

Updated at: 2200 UTC 30 Jun 2022
Potential Impact None Slight Moderate High
Time 30/10Z 30/11Z 30/12Z 30/13Z 30/14Z 30/15Z 30/16Z 30/17Z 30/18Z 30/19Z 30/20Z 30/21Z 30/22Z
Temp76 75 79 81 82 84 88 88 90 91 90 91 84
Dewpt74 73 73 73 72 72 72 70 66 68 68 68 70
Altim30.12 30.13 30.14 30.15 30.16 30.15 30.15 30.13 30.11 30.08 30.06 30.06 30.06
VIS10 10 10 10 10 10 10 10 10 10 10 10 10
CIG-- -- -- -- -- -- -- -- 48 55 -- -- --
CoverCLRCLRFEWFEWSCTSCTSCTSCTBKNBKNSCTSCTSCT
FltCatVFRVFRVFRVFRVFRVFRVFRVFRVFRVFRVFRVFRVFR
WX--------------------VCSHVCTSVCTS
WDir010000000000360350290
WSpd0 3 0 0 0 0 0 0 0 0 5 3 8
WGst-- -- -- -- -- -- -- -- -- -- -- -- --
Raw hourly METARs
KLAL 300955Z AUTO 00000KT 10SM CLR 24/23 A3012 RMK AO2 LTG DSNT E T02440231
KLAL 301055Z AUTO 10003KT 10SM CLR 24/23 A3013 RMK AO2 LTG DSNT E T02390228
KLAL 301150Z 00000KT 10SM FEW015 26/23 A3014
KLAL 301250Z 00000KT 10SM FEW015 27/23 A3015
KLAL 301350Z 00000KT 10SM SCT020 28/22 A3016
KLAL 301450Z 00000KT 10SM SCT025 29/22 A3015
KLAL 301550Z 00000KT 10SM SCT033 31/22 A3015
KLAL 301650Z 00000KT 10SM SCT040 31/21 A3013
KLAL 301750Z 00000KT 10SM BKN048 32/19 A3011
KLAL 301850Z 00000KT 10SM BKN055 33/20 A3008
KLAL 301950Z 36005KT 10SM VCSH SCT050 SCT080 32/20 A3006 RMK VCSH SW AND NW
KLAL 302050Z 35003KT 10SM VCTS SCT050CB SCT085 33/20 A3006 RMK VCTS W MOV W FRQ LTG ICCG W
KLAL 302150Z 29008KT 10SM VCTS SCT090CB SCT120 29/21 A3006 RMK VCTS W MOV W FRQ LTG ICCG W



Page loaded:  22:28 UTC  |   03:28 PM Pacific  |   04:28 PM Mountain  |   05:28 PM Central  |   06:28 PM Eastern

 

ADVISORIES

FORECASTS

FORECASTS

OBSERVATIONS

USER TOOLS

ABOUT US